Time;durP1;ratioP1;P1;durP2;ratioP2;P2;SDS_P1;SDS_P2;PMS_P1;PMS_P2;Temp;Humidity;BMP_temperature;BMP_pressure;BME280_temperature;BME280_humidity;BME280_pressure;Samples;Min_cycle;Max_cycle;Signal;HPM_P1;HPM_P2
2022/11/30 00:01:08;;;;;;;13.07;9.07;;;;;;;;;;5039398;28;20120;-79
2022/11/30 00:03:35;;;;;;;15.88;10.25;;;;;;;;;;5039573;28;20427;-79
2022/11/30 00:06:05;;;;;;;16.48;10.68;;;;;;;;;;5021654;28;20068;-79
2022/11/30 00:08:31;;;;;;;17.67;11.40;;;;;;;;;;5039947;28;20463;-79
2022/11/30 00:10:57;;;;;;;16.33;9.95;;;;;;;;;;5036368;28;20038;-79
2022/11/30 00:13:23;;;;;;;19.05;11.35;;;;;;;;;;5039678;28;20484;-79
2022/11/30 00:15:49;;;;;;;19.17;10.85;;;;;;;;;;5037985;28;20053;-79
2022/11/30 00:18:16;;;;;;;23.05;13.20;;;;;;;;;;5025197;28;20052;-79
2022/11/30 00:20:43;;;;;;;28.52;15.38;;;;;;;;;;5043032;28;20121;-79
2022/11/30 00:23:09;;;;;;;29.80;16.85;;;;;;;;;;5040391;28;20051;-79
2022/11/30 00:25:36;;;;;;;27.70;15.68;;;;;;;;;;5048001;28;20128;-79
2022/11/30 00:28:02;;;;;;;29.95;15.15;;;;;;;;;;5048547;28;20054;-79
2022/11/30 00:30:29;;;;;;;22.98;14.15;;;;;;;;;;5046543;28;20096;-79
2022/11/30 00:32:58;;;;;;;28.35;16.10;;;;;;;;;;5045391;28;20492;-79
2022/11/30 00:35:24;;;;;;;26.90;16.60;;;;;;;;;;5046452;28;20048;-79
2022/11/30 00:37:50;;;;;;;25.50;15.68;;;;;;;;;;5045678;28;20061;-79
2022/11/30 00:40:16;;;;;;;25.67;15.57;;;;;;;;;;5041890;28;20121;-79
2022/11/30 00:42:42;;;;;;;26.90;15.90;;;;;;;;;;5043691;28;20060;-79
2022/11/30 00:45:08;;;;;;;22.90;14.07;;;;;;;;;;5045014;28;20050;-79
2022/11/30 00:47:35;;;;;;;26.70;16.25;;;;;;;;;;5041738;28;20053;-79
2022/11/30 00:50:01;;;;;;;29.00;17.15;;;;;;;;;;5042258;28;20057;-79
2022/11/30 00:52:29;;;;;;;32.63;18.13;;;;;;;;;;5044794;28;20093;-79
2022/11/30 00:54:55;;;;;;;33.03;18.50;;;;;;;;;;5042822;28;20105;-79
2022/11/30 00:57:21;;;;;;;32.75;18.02;;;;;;;;;;5044156;28;20045;-79
2022/11/30 00:59:47;;;;;;;31.10;18.73;;;;;;;;;;5041675;28;20056;-79
2022/11/30 01:02:13;;;;;;;30.27;17.85;;;;;;;;;;5044137;28;20041;-79
2022/11/30 01:04:39;;;;;;;30.08;17.75;;;;;;;;;;5043561;28;20064;-79
2022/11/30 01:07:05;;;;;;;27.77;16.33;;;;;;;;;;5043695;28;20464;-79
2022/11/30 01:09:31;;;;;;;34.25;19.17;;;;;;;;;;5044049;28;20041;-79
2022/11/30 01:11:57;;;;;;;26.75;16.17;;;;;;;;;;5041708;28;20080;-79
2022/11/30 01:14:24;;;;;;;30.90;16.83;;;;;;;;;;5058648;28;20045;-79
2022/11/30 01:16:50;;;;;;;28.77;16.30;;;;;;;;;;5031843;28;20539;-80
2022/11/30 01:19:17;;;;;;;30.15;16.85;;;;;;;;;;5043072;28;20140;-79
2022/11/30 01:21:43;;;;;;;31.08;17.85;;;;;;;;;;5035276;28;20050;-79
2022/11/30 01:24:09;;;;;;;26.15;15.40;;;;;;;;;;5023255;28;20068;-79
2022/11/30 01:26:35;;;;;;;26.10;15.50;;;;;;;;;;5030547;28;20053;-79
2022/11/30 01:29:01;;;;;;;26.23;15.13;;;;;;;;;;5042395;28;20480;-79
2022/11/30 01:31:27;;;;;;;30.80;16.40;;;;;;;;;;5042236;28;20167;-79
2022/11/30 01:33:55;;;;;;;25.67;15.73;;;;;;;;;;5040661;28;20046;-80
2022/11/30 01:36:25;;;;;;;27.50;16.45;;;;;;;;;;5040539;28;20064;-80
2022/11/30 01:38:53;;;;;;;27.27;16.33;;;;;;;;;;5040819;28;20041;-79
2022/11/30 01:41:23;;;;;;;33.08;16.90;;;;;;;;;;5040850;28;20038;-79
2022/11/30 01:43:49;;;;;;;25.92;15.50;;;;;;;;;;5026511;28;20048;-79
2022/11/30 01:46:18;;;;;;;24.60;15.00;;;;;;;;;;5035246;28;20049;-79
2022/11/30 01:48:45;;;;;;;25.38;15.68;;;;;;;;;;5039795;28;20061;-79
2022/11/30 01:51:11;;;;;;;28.65;16.25;;;;;;;;;;5021474;28;20048;-79
2022/11/30 01:53:37;;;;;;;24.05;15.23;;;;;;;;;;5025811;28;20068;-79
2022/11/30 01:56:03;;;;;;;25.95;15.77;;;;;;;;;;5023904;28;20064;-79
2022/11/30 01:58:31;;;;;;;24.52;14.07;;;;;;;;;;5038983;28;20056;-79
2022/11/30 02:00:57;;;;;;;21.33;13.63;;;;;;;;;;5038820;28;20049;-79
2022/11/30 02:03:30;;;;;;;20.42;13.90;;;;;;;;;;5037768;28;20084;-79
2022/11/30 02:05:56;;;;;;;22.80;13.63;;;;;;;;;;5038230;28;20041;-79
2022/11/30 02:08:22;;;;;;;23.48;14.07;;;;;;;;;;5026406;28;20041;-79
2022/11/30 02:10:53;;;;;;;20.60;12.93;;;;;;;;;;5037179;28;20045;-79
2022/11/30 02:13:48;;;;;;;20.35;12.93;;;;;;;;;;5055310;28;20076;-79
2022/11/30 02:16:33;;;;;;;18.88;12.27;;;;;;;;;;5040904;28;20136;-79
2022/11/30 02:19:07;;;;;;;22.08;13.13;;;;;;;;;;5037363;28;20065;-79
2022/11/30 02:21:38;;;;;;;24.40;14.07;;;;;;;;;;5037423;28;20525;-79
2022/11/30 02:24:07;;;;;;;22.45;14.30;;;;;;;;;;5038421;28;20073;-79
2022/11/30 02:26:38;;;;;;;21.08;13.40;;;;;;;;;;5016556;28;20084;-79
2022/11/30 02:29:09;;;;;;;105.70;14.27;;;;;;;;;;5031219;28;20050;-79
2022/11/30 02:31:42;;;;;;;109.07;14.80;;;;;;;;;;5037239;28;20045;-79
2022/11/30 02:34:10;;;;;;;14.20;8.60;;;;;;;;;;5038190;28;20053;-79
2022/11/30 02:36:39;;;;;;;96.07;15.30;;;;;;;;;;5029981;28;20128;-79
2022/11/30 02:39:05;;;;;;;22.85;8.93;;;;;;;;;;5036546;28;20049;-79
2022/11/30 02:41:39;;;;;;;284.83;18.67;;;;;;;;;;5025119;28;20053;-79
2022/11/30 02:44:05;;;;;;;178.73;12.82;;;;;;;;;;5019497;28;20053;-79
2022/11/30 02:46:51;;;;;;;124.00;11.02;;;;;;;;;;5035036;28;20080;-79
2022/11/30 02:49:36;;;;;;;34.50;6.95;;;;;;;;;;5033885;28;20082;-79
2022/11/30 02:52:04;;;;;;;53.95;7.80;;;;;;;;;;5025388;28;20069;-79
2022/11/30 02:54:30;;;;;;;41.75;8.63;;;;;;;;;;5033647;28;20053;-79
2022/11/30 02:56:57;;;;;;;45.17;7.97;;;;;;;;;;5028413;28;20052;-79
2022/11/30 02:59:23;;;;;;;74.20;8.23;;;;;;;;;;5039269;28;20128;-79
2022/11/30 03:01:49;;;;;;;45.42;7.18;;;;;;;;;;5039477;28;20045;-79
2022/11/30 03:04:15;;;;;;;82.45;9.15;;;;;;;;;;5040403;28;20142;-79
2022/11/30 03:06:41;;;;;;;71.88;8.48;;;;;;;;;;5039606;28;20045;-79
2022/11/30 03:09:07;;;;;;;51.33;7.53;;;;;;;;;;5038045;28;20041;-79
2022/11/30 03:11:33;;;;;;;64.80;7.45;;;;;;;;;;5031265;28;20164;-79
2022/11/30 03:13:59;;;;;;;47.17;7.30;;;;;;;;;;5051727;28;20045;-79
2022/11/30 03:16:25;;;;;;;96.60;9.02;;;;;;;;;;5037944;28;20053;-79
2022/11/30 03:18:52;;;;;;;100.30;8.93;;;;;;;;;;5037504;28;20049;-79
2022/11/30 03:21:18;;;;;;;128.43;11.75;;;;;;;;;;5030618;28;20044;-79
2022/11/30 03:23:44;;;;;;;93.70;9.73;;;;;;;;;;5039005;28;20090;-79
2022/11/30 03:26:10;;;;;;;59.47;8.30;;;;;;;;;;5037589;28;20045;-79
2022/11/30 03:28:36;;;;;;;101.18;10.95;;;;;;;;;;5037545;28;20053;-79
2022/11/30 03:31:02;;;;;;;107.75;10.60;;;;;;;;;;5038297;28;20412;-79
2022/11/30 03:33:28;;;;;;;85.07;9.70;;;;;;;;;;5039323;28;20139;-79
2022/11/30 03:36:13;;;;;;;114.53;10.75;;;;;;;;;;5038251;28;20042;-79
2022/11/30 03:38:39;;;;;;;114.88;10.60;;;;;;;;;;5039565;28;20068;-79
2022/11/30 03:41:11;;;;;;;123.90;12.20;;;;;;;;;;5039485;28;20073;-79
2022/11/30 03:43:37;;;;;;;129.30;12.32;;;;;;;;;;5042111;28;20045;-79
2022/11/30 03:46:03;;;;;;;105.75;11.82;;;;;;;;;;5040419;28;20046;-79
2022/11/30 03:48:30;;;;;;;76.30;9.60;;;;;;;;;;5040301;28;20041;-79
2022/11/30 03:50:56;;;;;;;25.55;7.97;;;;;;;;;;5042669;28;20072;-79
2022/11/30 03:53:24;;;;;;;30.95;8.70;;;;;;;;;;5039802;28;20038;-79
2022/11/30 03:55:57;;;;;;;14.95;7.60;;;;;;;;;;5042406;28;20045;-79
2022/11/30 03:58:23;;;;;;;15.45;6.95;;;;;;;;;;5043044;28;20072;-79
2022/11/30 04:00:51;;;;;;;8.43;6.45;;;;;;;;;;5041728;28;20046;-79
2022/11/30 04:03:17;;;;;;;9.35;7.40;;;;;;;;;;5031869;28;20045;-79
2022/11/30 04:05:43;;;;;;;9.75;6.90;;;;;;;;;;5041590;28;20042;-79
2022/11/30 04:08:09;;;;;;;10.38;6.88;;;;;;;;;;5041619;28;20041;-79
2022/11/30 04:10:35;;;;;;;10.65;7.22;;;;;;;;;;5029901;28;20041;-79
2022/11/30 04:13:01;;;;;;;11.40;8.00;;;;;;;;;;5036044;28;20048;-79
2022/11/30 04:15:27;;;;;;;12.27;8.35;;;;;;;;;;5023696;28;20103;-79
2022/11/30 04:17:53;;;;;;;12.25;8.43;;;;;;;;;;5029685;28;20081;-78
2022/11/30 04:20:19;;;;;;;13.48;8.77;;;;;;;;;;5031438;28;20046;-78
2022/11/30 04:22:48;;;;;;;12.63;8.48;;;;;;;;;;5020901;28;20042;-78
2022/11/30 04:25:14;;;;;;;13.88;9.30;;;;;;;;;;5038614;28;20495;-78
2022/11/30 04:27:40;;;;;;;13.48;8.85;;;;;;;;;;5038900;28;20172;-79
2022/11/30 04:30:06;;;;;;;12.73;8.95;;;;;;;;;;5040629;28;20116;-79
2022/11/30 04:32:32;;;;;;;15.73;9.15;;;;;;;;;;5040464;28;20120;-79
2022/11/30 04:34:58;;;;;;;15.20;9.88;;;;;;;;;;5038700;28;20053;-79
2022/11/30 04:37:24;;;;;;;16.38;10.70;;;;;;;;;;5040267;28;20041;-79
2022/11/30 04:39:51;;;;;;;14.55;9.93;;;;;;;;;;5035681;28;20061;-79
2022/11/30 04:42:17;;;;;;;12.38;9.10;;;;;;;;;;5014479;28;20049;-79
2022/11/30 04:44:43;;;;;;;14.40;10.02;;;;;;;;;;5024519;28;20041;-79
2022/11/30 04:47:09;;;;;;;17.27;10.18;;;;;;;;;;5040468;28;20041;-79
2022/11/30 04:49:35;;;;;;;16.73;10.48;;;;;;;;;;5030122;28;20100;-79
2022/11/30 04:52:01;;;;;;;15.73;10.15;;;;;;;;;;5018907;28;20560;-79
2022/11/30 04:54:27;;;;;;;18.30;11.02;;;;;;;;;;5023076;28;20080;-79
2022/11/30 04:56:53;;;;;;;21.88;12.73;;;;;;;;;;5020481;28;20042;-79
2022/11/30 04:59:19;;;;;;;23.60;13.80;;;;;;;;;;5029794;28;20041;-79
2022/11/30 05:01:45;;;;;;;24.05;13.13;;;;;;;;;;5039040;28;20037;-79
2022/11/30 05:04:11;;;;;;;23.30;12.30;;;;;;;;;;5040277;28;20045;-79
2022/11/30 05:06:37;;;;;;;21.25;11.98;;;;;;;;;;5037247;28;20041;-79
2022/11/30 05:09:03;;;;;;;24.35;13.07;;;;;;;;;;5039440;28;20101;-79
2022/11/30 05:11:29;;;;;;;24.23;13.90;;;;;;;;;;5039249;28;20050;-78
2022/11/30 05:13:55;;;;;;;21.80;13.90;;;;;;;;;;5039556;28;20041;-78
2022/11/30 05:16:21;;;;;;;25.52;14.80;;;;;;;;;;5035126;28;20062;-78
2022/11/30 05:18:47;;;;;;;22.80;13.15;;;;;;;;;;5035422;28;20045;-78
2022/11/30 05:21:14;;;;;;;24.15;13.85;;;;;;;;;;5037675;28;20057;-78
2022/11/30 05:23:40;;;;;;;24.60;13.77;;;;;;;;;;5036905;28;20054;-79
2022/11/30 05:26:06;;;;;;;29.15;14.52;;;;;;;;;;5039699;28;20048;-79
2022/11/30 05:28:32;;;;;;;24.70;14.25;;;;;;;;;;5038847;28;20041;-79
2022/11/30 05:31:02;;;;;;;18.35;11.73;;;;;;;;;;5039344;28;20504;-79
2022/11/30 05:33:28;;;;;;;26.58;14.20;;;;;;;;;;5035811;28;20063;-79
2022/11/30 05:35:54;;;;;;;20.30;13.07;;;;;;;;;;5039438;28;20489;-79
2022/11/30 05:38:20;;;;;;;21.33;12.43;;;;;;;;;;5039404;28;20389;-79
2022/11/30 05:40:46;;;;;;;18.92;11.82;;;;;;;;;;5039670;28;20045;-79
2022/11/30 05:43:12;;;;;;;19.08;11.88;;;;;;;;;;5039443;28;20045;-79
2022/11/30 05:45:38;;;;;;;21.38;13.40;;;;;;;;;;5039577;28;20079;-79
2022/11/30 05:48:05;;;;;;;24.83;14.00;;;;;;;;;;5039484;28;20041;-78
2022/11/30 05:50:31;;;;;;;24.10;14.18;;;;;;;;;;5036966;28;20490;-78
2022/11/30 05:52:59;;;;;;;23.50;13.55;;;;;;;;;;5034103;28;20610;-79
2022/11/30 05:55:26;;;;;;;21.40;12.85;;;;;;;;;;5036569;28;20048;-79
2022/11/30 05:57:52;;;;;;;18.98;12.52;;;;;;;;;;5039188;28;20041;-79
2022/11/30 06:00:19;;;;;;;23.42;12.73;;;;;;;;;;5039957;28;20065;-79
2022/11/30 06:02:45;;;;;;;25.35;13.90;;;;;;;;;;5039934;28;20050;-79
2022/11/30 06:05:12;;;;;;;29.05;16.20;;;;;;;;;;5040230;28;20049;-79
2022/11/30 06:07:38;;;;;;;28.95;14.43;;;;;;;;;;5039281;28;20108;-79
2022/11/30 06:10:05;;;;;;;26.23;15.23;;;;;;;;;;5038407;28;20495;-79
2022/11/30 06:12:31;;;;;;;25.27;13.75;;;;;;;;;;5039907;28;20057;-79
2022/11/30 06:14:59;;;;;;;24.13;13.52;;;;;;;;;;5041072;28;20045;-79
2022/11/30 06:17:25;;;;;;;22.45;13.57;;;;;;;;;;5038489;28;20061;-78
2022/11/30 06:19:51;;;;;;;29.77;15.13;;;;;;;;;;5040783;28;20099;-79
2022/11/30 06:22:17;;;;;;;29.20;16.70;;;;;;;;;;5039212;28;20045;-79
2022/11/30 06:24:46;;;;;;;29.85;16.55;;;;;;;;;;5040027;28;20423;-79
2022/11/30 06:27:18;;;;;;;34.58;18.38;;;;;;;;;;5034312;28;20045;-79
2022/11/30 06:29:46;;;;;;;35.42;18.75;;;;;;;;;;5018567;28;20054;-78
2022/11/30 06:32:13;;;;;;;35.60;19.42;;;;;;;;;;5019867;28;20042;-78
2022/11/30 06:34:54;;;;;;;38.17;20.95;;;;;;;;;;5031655;28;20045;-78
2022/11/30 06:37:20;;;;;;;31.20;17.08;;;;;;;;;;5037617;28;20053;-79
2022/11/30 06:39:46;;;;;;;36.88;19.67;;;;;;;;;;5037694;28;20128;-79
2022/11/30 06:42:12;;;;;;;34.95;18.77;;;;;;;;;;5033839;28;20060;-79
2022/11/30 06:44:39;;;;;;;35.13;17.70;;;;;;;;;;5018977;28;20101;-79
2022/11/30 06:47:05;;;;;;;41.42;20.45;;;;;;;;;;5027345;28;20119;-79
2022/11/30 06:49:40;;;;;;;36.05;18.35;;;;;;;;;;5039014;28;20064;-79
2022/11/30 06:54:52;;;;;;;28.17;15.90;;;;;;;;;;5044271;28;20068;-79
2022/11/30 06:57:18;;;;;;;35.35;17.50;;;;;;;;;;5044576;28;20065;-79
2022/11/30 06:59:45;;;;;;;31.88;16.83;;;;;;;;;;5041347;28;20041;-79
2022/11/30 07:02:15;;;;;;;36.80;18.75;;;;;;;;;;5038811;28;20057;-79
2022/11/30 07:04:43;;;;;;;31.67;17.25;;;;;;;;;;5034428;28;20049;-79
2022/11/30 07:07:09;;;;;;;36.10;18.38;;;;;;;;;;5040043;28;20101;-79
2022/11/30 07:09:35;;;;;;;32.47;18.25;;;;;;;;;;5035142;28;20045;-78
2022/11/30 07:12:05;;;;;;;32.95;17.58;;;;;;;;;;5035430;28;20052;-78
2022/11/30 07:15:39;;;;;;;31.40;17.67;;;;;;;;;;5035282;28;20038;-78
2022/11/30 07:18:00;;;;;;;35.42;19.13;;;;;;;;;;5013775;28;20054;-78
2022/11/30 07:20:26;;;;;;;33.38;18.20;;;;;;;;;;5032053;28;20053;-78
2022/11/30 07:22:55;;;;;;;28.70;16.65;;;;;;;;;;5030892;28;20084;-78
2022/11/30 07:28:07;;;;;;;31.77;19.15;;;;;;;;;;5033051;28;20072;-79
2022/11/30 07:30:36;;;;;;;33.65;19.73;;;;;;;;;;5016394;28;20050;-79
2022/11/30 07:33:03;;;;;;;38.13;19.83;;;;;;;;;;5000579;28;20532;-79
2022/11/30 07:35:29;;;;;;;38.78;20.45;;;;;;;;;;5033951;28;20041;-79
2022/11/30 07:37:55;;;;;;;42.13;21.52;;;;;;;;;;5036977;28;20069;-79
2022/11/30 07:40:21;;;;;;;48.63;24.55;;;;;;;;;;5036251;28;20041;-78
2022/11/30 07:42:47;;;;;;;47.40;23.95;;;;;;;;;;5020134;28;20506;-79
2022/11/30 07:45:13;;;;;;;49.55;24.30;;;;;;;;;;5036065;28;20365;-79
2022/11/30 07:47:39;;;;;;;49.22;24.15;;;;;;;;;;5021302;28;20129;-79
2022/11/30 07:50:05;;;;;;;55.85;25.77;;;;;;;;;;5024603;28;20038;-79
2022/11/30 07:52:31;;;;;;;46.88;23.23;;;;;;;;;;5037172;28;20069;-79
2022/11/30 07:54:57;;;;;;;48.10;23.15;;;;;;;;;;5039571;28;20042;-79
2022/11/30 07:57:23;;;;;;;45.72;24.10;;;;;;;;;;5011835;28;20558;-79
2022/11/30 07:59:49;;;;;;;53.38;24.25;;;;;;;;;;5019847;28;20126;-79
2022/11/30 08:02:15;;;;;;;52.33;24.90;;;;;;;;;;5023248;28;20050;-79
2022/11/30 08:04:41;;;;;;;54.70;24.80;;;;;;;;;;5025587;28;20546;-79
2022/11/30 08:07:07;;;;;;;45.63;22.38;;;;;;;;;;5028542;28;20096;-79
2022/11/30 08:09:34;;;;;;;42.97;21.20;;;;;;;;;;5039372;28;20407;-79
2022/11/30 08:12:00;;;;;;;35.10;19.58;;;;;;;;;;5039387;28;20052;-79
2022/11/30 08:14:26;;;;;;;36.65;19.30;;;;;;;;;;5039686;28;20484;-79
2022/11/30 08:16:52;;;;;;;36.67;19.63;;;;;;;;;;5038672;28;20054;-79
2022/11/30 08:19:18;;;;;;;36.22;20.50;;;;;;;;;;5038153;28;20053;-79
2022/11/30 08:21:44;;;;;;;38.95;20.25;;;;;;;;;;5056057;28;20048;-79
2022/11/30 08:24:12;;;;;;;38.67;21.02;;;;;;;;;;5036857;28;20048;-79
2022/11/30 08:26:38;;;;;;;38.97;20.98;;;;;;;;;;5037409;28;20855;-79
2022/11/30 08:29:04;;;;;;;47.35;22.08;;;;;;;;;;5039569;28;20038;-79
2022/11/30 08:31:35;;;;;;;43.05;23.83;;;;;;;;;;5040039;28;20080;-79
2022/11/30 08:34:06;;;;;;;48.47;23.88;;;;;;;;;;5038364;28;20041;-79
2022/11/30 08:36:32;;;;;;;50.35;24.45;;;;;;;;;;5030857;28;20050;-80
2022/11/30 08:38:58;;;;;;;46.88;23.80;;;;;;;;;;5057013;28;20073;-79
2022/11/30 08:41:25;;;;;;;43.95;22.95;;;;;;;;;;5040348;28;20045;-79
2022/11/30 08:43:51;;;;;;;39.40;21.25;;;;;;;;;;5033948;28;20076;-79
2022/11/30 08:46:19;;;;;;;39.33;21.25;;;;;;;;;;5042341;28;20065;-80
2022/11/30 08:48:45;;;;;;;41.60;21.10;;;;;;;;;;5035218;28;20038;-79
2022/11/30 08:51:13;;;;;;;42.50;21.38;;;;;;;;;;5030034;28;20076;-80
2022/11/30 08:53:39;;;;;;;38.90;20.38;;;;;;;;;;5031049;28;20037;-78
2022/11/30 08:56:07;;;;;;;40.92;21.83;;;;;;;;;;5041079;28;20101;-78
2022/11/30 08:58:34;;;;;;;43.30;21.60;;;;;;;;;;5028649;28;20135;-78
2022/11/30 09:01:12;;;;;;;45.90;23.23;;;;;;;;;;5022713;28;20102;-77
2022/11/30 09:03:38;;;;;;;40.20;22.05;;;;;;;;;;5023275;28;20050;-79
2022/11/30 09:06:04;;;;;;;44.88;23.52;;;;;;;;;;5037741;28;20045;-78
2022/11/30 09:08:31;;;;;;;49.10;23.17;;;;;;;;;;5040095;28;20097;-79
2022/11/30 09:10:57;;;;;;;49.03;24.27;;;;;;;;;;5022692;28;20049;-79
2022/11/30 09:13:23;;;;;;;46.42;23.70;;;;;;;;;;5021528;28;20090;-79
2022/11/30 09:15:55;;;;;;;44.40;22.92;;;;;;;;;;5035576;28;20052;-78
2022/11/30 09:18:21;;;;;;;41.45;23.08;;;;;;;;;;5040368;28;20147;-78
2022/11/30 09:20:47;;;;;;;42.45;22.55;;;;;;;;;;5022880;28;20053;-79
2022/11/30 09:23:13;;;;;;;44.00;21.42;;;;;;;;;;5040642;28;20399;-79
2022/11/30 09:25:39;;;;;;;50.00;23.70;;;;;;;;;;5032261;28;20045;-79
2022/11/30 09:28:05;;;;;;;42.28;23.13;;;;;;;;;;5021623;28;20046;-79
2022/11/30 09:30:31;;;;;;;43.13;22.48;;;;;;;;;;5023594;28;20046;-79
2022/11/30 09:32:59;;;;;;;49.13;23.30;;;;;;;;;;5035978;28;20046;-79
2022/11/30 09:35:25;;;;;;;47.30;23.40;;;;;;;;;;5034111;28;20049;-80
2022/11/30 09:37:52;;;;;;;37.25;20.50;;;;;;;;;;5039591;28;20095;-79
2022/11/30 09:40:22;;;;;;;39.70;20.35;;;;;;;;;;5039892;28;20046;-80
2022/11/30 09:43:01;;;;;;;41.45;22.13;;;;;;;;;;5036495;28;20052;-78
2022/11/30 09:45:32;;;;;;;46.88;23.25;;;;;;;;;;5037591;28;20117;-78
2022/11/30 09:48:04;;;;;;;43.45;23.20;;;;;;;;;;5034986;28;20052;-78
2022/11/30 09:50:32;;;;;;;40.92;21.92;;;;;;;;;;5035510;28;20395;-80
2022/11/30 09:53:00;;;;;;;39.25;21.52;;;;;;;;;;5039495;28;20037;-78
2022/11/30 09:55:28;;;;;;;39.65;21.52;;;;;;;;;;5034080;28;20056;-82
2022/11/30 09:58:04;;;;;;;42.70;22.33;;;;;;;;;;5017344;28;20045;-78
2022/11/30 10:00:30;;;;;;;43.60;22.40;;;;;;;;;;5027883;28;20120;-77
2022/11/30 10:02:58;;;;;;;43.58;22.30;;;;;;;;;;5035316;28;20472;-77
2022/11/30 10:05:27;;;;;;;42.00;22.20;;;;;;;;;;5034159;28;20045;-77
2022/11/30 10:07:59;;;;;;;43.92;22.83;;;;;;;;;;5038986;28;20046;-77
2022/11/30 10:10:33;;;;;;;41.92;21.67;;;;;;;;;;5037992;28;20095;-77
2022/11/30 10:13:15;;;;;;;41.15;22.95;;;;;;;;;;5035324;28;20051;-78
2022/11/30 10:15:53;;;;;;;45.67;23.45;;;;;;;;;;5033888;28;20041;-77
2022/11/30 10:18:38;;;;;;;39.05;22.42;;;;;;;;;;5034816;28;20128;-78
2022/11/30 10:21:22;;;;;;;44.22;23.88;;;;;;;;;;5034531;28;20424;-78
2022/11/30 10:23:54;;;;;;;43.17;23.23;;;;;;;;;;5016088;28;20116;-78
2022/11/30 10:26:29;;;;;;;46.33;22.92;;;;;;;;;;5033572;28;20048;-78
2022/11/30 10:28:57;;;;;;;48.00;22.27;;;;;;;;;;5034812;28;20476;-78
2022/11/30 10:31:28;;;;;;;43.83;23.02;;;;;;;;;;5034950;28;20048;-78
2022/11/30 10:33:56;;;;;;;47.63;24.58;;;;;;;;;;5050112;28;20045;-78
2022/11/30 10:36:25;;;;;;;45.30;23.77;;;;;;;;;;5034426;28;20058;-78
2022/11/30 10:38:53;;;;;;;42.78;23.02;;;;;;;;;;5033843;28;20228;-78
2022/11/30 10:41:22;;;;;;;42.65;23.42;;;;;;;;;;5034415;28;20365;-78
2022/11/30 10:43:51;;;;;;;42.63;23.52;;;;;;;;;;5035491;28;20439;-79
2022/11/30 10:46:21;;;;;;;43.92;24.08;;;;;;;;;;5037033;28;20045;-78
2022/11/30 10:48:49;;;;;;;42.22;22.77;;;;;;;;;;5035587;28;20080;-78
2022/11/30 10:51:16;;;;;;;44.53;22.73;;;;;;;;;;5032366;28;20049;-78
2022/11/30 10:53:42;;;;;;;45.20;23.20;;;;;;;;;;5026633;28;20053;-78
2022/11/30 10:56:12;;;;;;;46.97;23.25;;;;;;;;;;5034714;28;20045;-78
2022/11/30 10:58:59;;;;;;;44.28;23.60;;;;;;;;;;5035438;28;20052;-78
2022/11/30 11:01:33;;;;;;;41.70;22.88;;;;;;;;;;5037637;28;20427;-80
2022/11/30 11:04:14;;;;;;;40.50;22.02;;;;;;;;;;5039000;28;20042;-79
2022/11/30 11:06:53;;;;;;;42.67;22.88;;;;;;;;;;5028883;28;20108;-78
2022/11/30 11:09:45;;;;;;;41.60;22.90;;;;;;;;;;5035483;28;20045;-78
2022/11/30 11:12:22;;;;;;;40.83;21.48;;;;;;;;;;5035120;28;20064;-79
2022/11/30 11:14:48;;;;;;;41.47;23.65;;;;;;;;;;5030294;28;20488;-78
2022/11/30 11:17:17;;;;;;;44.13;23.63;;;;;;;;;;5014059;28;20050;-78
2022/11/30 11:19:43;;;;;;;42.72;22.90;;;;;;;;;;5020197;28;20064;-78
2022/11/30 11:22:12;;;;;;;44.83;23.83;;;;;;;;;;5017188;28;20046;-79
2022/11/30 11:24:38;;;;;;;44.90;23.48;;;;;;;;;;5036079;28;20080;-78
2022/11/30 11:27:04;;;;;;;40.75;23.65;;;;;;;;;;5034553;28;20076;-78
2022/11/30 11:29:34;;;;;;;40.90;23.33;;;;;;;;;;5036169;28;20049;-78
2022/11/30 11:32:08;;;;;;;42.08;21.85;;;;;;;;;;5034804;28;20081;-79
2022/11/30 11:34:35;;;;;;;45.55;23.77;;;;;;;;;;5034637;28;20072;-79
2022/11/30 11:37:20;;;;;;;42.90;23.27;;;;;;;;;;5034274;28;20064;-78
2022/11/30 11:40:02;;;;;;;42.78;22.83;;;;;;;;;;5034090;28;20057;-79
2022/11/30 11:42:30;;;;;;;42.80;23.33;;;;;;;;;;5026410;28;20078;-80
2022/11/30 11:44:57;;;;;;;47.25;24.67;;;;;;;;;;5035919;28;20038;-81
2022/11/30 11:47:24;;;;;;;41.28;22.70;;;;;;;;;;5031359;28;20041;-78
2022/11/30 11:49:50;;;;;;;42.53;23.00;;;;;;;;;;5040008;28;20049;-80
2022/11/30 11:52:17;;;;;;;45.70;24.33;;;;;;;;;;5039703;28;20120;-81
2022/11/30 11:54:49;;;;;;;44.88;25.00;;;;;;;;;;5037130;28;20045;-81
2022/11/30 11:57:16;;;;;;;44.35;24.35;;;;;;;;;;5021903;28;20419;-81
2022/11/30 11:59:49;;;;;;;48.30;24.67;;;;;;;;;;5039091;28;20109;-81
2022/11/30 12:02:21;;;;;;;46.22;24.17;;;;;;;;;;5039309;28;20100;-81
2022/11/30 12:04:51;;;;;;;45.00;25.23;;;;;;;;;;5028957;28;20120;-82
2022/11/30 12:07:30;;;;;;;52.28;27.10;;;;;;;;;;5033133;28;20093;-81
2022/11/30 12:09:59;;;;;;;50.00;25.85;;;;;;;;;;5014168;28;20042;-81
2022/11/30 12:12:25;;;;;;;49.25;26.13;;;;;;;;;;5033988;28;20064;-81
2022/11/30 12:14:52;;;;;;;50.72;25.55;;;;;;;;;;5040786;28;20034;-82
2022/11/30 12:17:18;;;;;;;48.88;25.88;;;;;;;;;;5042117;28;20053;-81
2022/11/30 12:19:52;;;;;;;53.83;27.27;;;;;;;;;;5058701;28;20054;-81
2022/11/30 12:22:28;;;;;;;48.63;25.55;;;;;;;;;;5042783;28;20475;-81
2022/11/30 12:24:54;;;;;;;;;;;;;;;;;;5042372;28;20072;-81
2022/11/30 12:27:29;;;;;;;48.08;26.77;;;;;;;;;;5043442;28;19921;-81
2022/11/30 12:30:14;;;;;;;50.53;25.73;;;;;;;;;;5043498;28;20444;-81
2022/11/30 12:32:59;;;;;;;45.17;26.52;;;;;;;;;;5037153;28;20052;-82
2022/11/30 12:35:26;;;;;;;54.42;28.25;;;;;;;;;;5033437;28;20511;-82
2022/11/30 12:37:59;;;;;;;49.78;27.30;;;;;;;;;;5042733;28;20049;-81
2022/11/30 12:40:31;;;;;;;51.38;27.60;;;;;;;;;;5058772;28;20041;-81
2022/11/30 12:43:20;;;;;;;53.38;28.35;;;;;;;;;;5058550;28;20096;-81
2022/11/30 12:45:47;;;;;;;51.97;27.65;;;;;;;;;;5055762;28;20025;-82
2022/11/30 12:48:16;;;;;;;53.53;27.30;;;;;;;;;;5057305;28;20128;-82
2022/11/30 12:51:01;;;;;;;54.67;28.85;;;;;;;;;;5046870;28;20088;-82
2022/11/30 12:53:46;;;;;;;55.90;28.90;;;;;;;;;;5059521;28;20073;-82
2022/11/30 12:56:18;;;;;;;53.53;27.90;;;;;;;;;;5059004;28;20049;-82
2022/11/30 12:58:50;;;;;;;50.55;27.92;;;;;;;;;;5058850;28;20025;-81
2022/11/30 13:01:42;;;;;;;50.45;27.02;;;;;;;;;;5058723;28;20097;-81
2022/11/30 13:04:25;;;;;;;53.05;26.85;;;;;;;;;;5059219;28;20063;-82
2022/11/30 13:07:09;;;;;;;53.08;29.15;;;;;;;;;;5049803;28;20491;-81
2022/11/30 13:09:41;;;;;;;55.40;28.95;;;;;;;;;;5043392;28;20138;-81
2022/11/30 13:12:10;;;;;;;58.50;29.00;;;;;;;;;;5040656;28;20050;-81
2022/11/30 13:14:37;;;;;;;51.10;28.10;;;;;;;;;;5023607;28;20048;-82
2022/11/30 13:17:07;;;;;;;54.58;28.35;;;;;;;;;;5040394;28;20133;-81
2022/11/30 13:19:52;;;;;;;58.00;29.95;;;;;;;;;;5041147;28;20499;-81
2022/11/30 13:22:21;;;;;;;54.83;29.67;;;;;;;;;;5039917;28;20124;-82
2022/11/30 13:24:50;;;;;;;53.60;29.80;;;;;;;;;;5047409;28;20124;-81
2022/11/30 13:27:17;;;;;;;55.63;30.08;;;;;;;;;;5022836;28;20437;-82
2022/11/30 13:30:02;;;;;;;55.92;29.38;;;;;;;;;;5042707;28;20042;-82
2022/11/30 13:32:31;;;;;;;60.85;29.55;;;;;;;;;;5017233;28;20124;-81
2022/11/30 13:35:16;;;;;;;55.50;29.08;;;;;;;;;;5016926;28;20519;-82
2022/11/30 13:37:42;;;;;;;55.88;29.38;;;;;;;;;;5016083;28;20124;-82
2022/11/30 13:40:21;;;;;;;61.25;31.27;;;;;;;;;;5037048;28;20086;-82
2022/11/30 13:42:47;;;;;;;57.53;29.38;;;;;;;;;;5036779;28;20091;-82
2022/11/30 13:45:13;;;;;;;54.78;29.33;;;;;;;;;;5038710;28;20095;-80
2022/11/30 13:47:40;;;;;;;57.75;30.23;;;;;;;;;;5027976;28;20042;-82
2022/11/30 13:50:08;;;;;;;54.15;30.48;;;;;;;;;;5016580;28;20497;-81
2022/11/30 13:52:52;;;;;;;56.58;30.83;;;;;;;;;;5033843;28;20053;-82
2022/11/30 13:55:37;;;;;;;56.28;29.05;;;;;;;;;;5035401;28;20132;-82
2022/11/30 13:58:08;;;;;;;55.20;28.05;;;;;;;;;;5035477;28;20395;-82
2022/11/30 14:00:34;;;;;;;54.50;29.25;;;;;;;;;;5031883;28;20042;-82
2022/11/30 14:03:19;;;;;;;54.67;29.83;;;;;;;;;;5033120;28;20105;-83
2022/11/30 14:05:46;;;;;;;56.65;28.67;;;;;;;;;;5034034;28;20129;-82
2022/11/30 14:08:18;;;;;;;53.25;29.67;;;;;;;;;;5035014;28;20131;-81
2022/11/30 14:10:48;;;;;;;52.33;28.73;;;;;;;;;;5030804;28;20038;-81
2022/11/30 14:13:19;;;;;;;49.92;27.65;;;;;;;;;;5007294;28;20140;-81
2022/11/30 14:15:51;;;;;;;54.33;29.98;;;;;;;;;;5017233;28;20404;-81
2022/11/30 14:18:21;;;;;;;57.05;28.90;;;;;;;;;;5005287;28;20054;-82
2022/11/30 14:20:53;;;;;;;54.60;29.27;;;;;;;;;;5027525;28;20446;-81
2022/11/30 14:23:26;;;;;;;52.03;28.75;;;;;;;;;;5034346;28;20092;-81
2022/11/30 14:25:55;;;;;;;54.15;28.15;;;;;;;;;;5030495;28;20103;-81
2022/11/30 14:28:26;;;;;;;52.83;28.45;;;;;;;;;;5035048;28;20041;-83
2022/11/30 14:30:54;;;;;;;51.35;28.30;;;;;;;;;;5017507;28;20074;-81
2022/11/30 14:33:26;;;;;;;55.17;29.08;;;;;;;;;;5027313;28;20101;-82
2022/11/30 14:35:57;;;;;;;54.25;30.27;;;;;;;;;;5026024;28;20099;-81